Back to Top

Language: 

My Weather Underground Personal Weather Station Historical Data with Graphs...

Delerius Weather Station Historical Data
Daily Summary for January 24, 2018 Units:  Both    English   Metric
« Previous Day
Next Day »
Daily Weekly Monthly Yearly Custom
  High: Low: Average:
Temperature: 55.2 °F /  12.9 °C 43.0 °F /  6.1 °C 47.1 °F /  8.4 °C
Dew Point: 50.4 °F /  10.2 °C 37.7 °F /  3.2 °C 42.4 °F /  5.8 °C
Humidity: 90 % 78 % 83 %
Wind Speed: 28.0 mph /  45.1 km/h - 15.6 mph /  25.1 km/h
Wind Gust: 46.0 mph /  74 km/h - -
Wind:- - SW
Pressure: 29.67 in /  1004.6 hPa 29.33 in /  993.1 hPa -
Precipitation: 0.11 in /  2.79 mm    
Historical Graphs
 
 
Tabular Data for January 24, 2018
Time Temperature Dew Point Pressure Wind Wind Speed Wind Gust Humidity Rainfall Rate (Hourly) solar Conditions
00:24 50.4 °F /  10.2 °C 45.4 °F /  7.4 °C 29.67 in /  1004.6 hPa SW 12.0 mph /  19.3 km/h 20.0 mph /  32.2 km/h 83 % 0.00 in /  0 mm 0 W/m2
00:29 50.4 °F /  10.2 °C 45.7 °F /  7.6 °C 29.67 in /  1004.6 hPa SW 11.0 mph /  17.7 km/h 14.0 mph /  22.5 km/h 84 % 0.00 in /  0 mm 0 W/m2
00:34 50.4 °F /  10.2 °C 45.7 °F /  7.6 °C 29.67 in /  1004.6 hPa SSW 10.0 mph /  16.1 km/h 20.0 mph /  32.2 km/h 84 % 0.00 in /  0 mm 0 W/m2
00:39 50.4 °F /  10.2 °C 45.7 °F /  7.6 °C 29.66 in /  1004.3 hPa SSW 14.0 mph /  22.5 km/h 25.0 mph /  40.2 km/h 84 % 0.00 in /  0 mm 0 W/m2
00:44 50.5 °F /  10.3 °C 45.9 °F /  7.7 °C 29.66 in /  1004.3 hPa SW 14.0 mph /  22.5 km/h 25.0 mph /  40.2 km/h 84 % 0.00 in /  0 mm 0 W/m2
00:49 50.5 °F /  10.3 °C 45.6 °F /  7.6 °C 29.66 in /  1004.3 hPa SW 12.0 mph /  19.3 km/h 19.0 mph /  30.6 km/h 83 % 0.00 in /  0 mm 0 W/m2
00:59 50.7 °F /  10.4 °C 45.7 °F /  7.6 °C 29.65 in /  1003.9 hPa SW 16.0 mph /  25.7 km/h 27.0 mph /  43.5 km/h 83 % 0.00 in /  0 mm 0 W/m2
01:04 50.7 °F /  10.4 °C 45.7 °F /  7.6 °C 29.64 in /  1003.6 hPa SW 16.0 mph /  25.7 km/h 26.0 mph /  41.8 km/h 83 % 0.00 in /  0 mm 0 W/m2
01:09 50.7 °F /  10.4 °C 45.7 °F /  7.6 °C 29.65 in /  1003.9 hPa SSW 13.0 mph /  20.9 km/h 22.0 mph /  35.4 km/h 83 % 0.00 in /  0 mm 0 W/m2
01:19 50.5 °F /  10.3 °C 45.6 °F /  7.6 °C 29.63 in /  1003.3 hPa SSW 19.0 mph /  30.6 km/h 27.0 mph /  43.5 km/h 83 % 0.00 in /  0 mm 0 W/m2
01:24 50.7 °F /  10.4 °C 45.7 °F /  7.6 °C 29.63 in /  1003.3 hPa SW 14.0 mph /  22.5 km/h 24.0 mph /  38.6 km/h 83 % 0.00 in /  0 mm 0 W/m2
01:29 50.7 °F /  10.4 °C 45.7 °F /  7.6 °C 29.63 in /  1003.3 hPa SW 17.0 mph /  27.4 km/h 27.0 mph /  43.5 km/h 83 % 0.00 in /  0 mm 0 W/m2
01:39 50.5 °F /  10.3 °C 45.6 °F /  7.6 °C 29.61 in /  1002.6 hPa SW 14.0 mph /  22.5 km/h 23.0 mph /  37 km/h 83 % 0.00 in /  0 mm 0 W/m2
01:44 50.5 °F /  10.3 °C 45.6 °F /  7.6 °C 29.60 in /  1002.3 hPa SW 14.0 mph /  22.5 km/h 28.0 mph /  45.1 km/h 83 % 0.00 in /  0 mm 0 W/m2
01:49 50.5 °F /  10.3 °C 45.6 °F /  7.6 °C 29.60 in /  1002.3 hPa SSW 17.0 mph /  27.4 km/h 27.0 mph /  43.5 km/h 83 % 0.00 in /  0 mm 0 W/m2
01:54 50.4 °F /  10.2 °C 45.4 °F /  7.4 °C 29.59 in /  1001.9 hPa SSW 15.0 mph /  24.1 km/h 26.0 mph /  41.8 km/h 83 % 0.00 in /  0 mm 0 W/m2
01:59 50.4 °F /  10.2 °C 45.7 °F /  7.6 °C 29.59 in /  1001.9 hPa SSW 14.0 mph /  22.5 km/h 22.0 mph /  35.4 km/h 84 % 0.00 in /  0 mm 0 W/m2
02:04 50.2 °F /  10.1 °C 45.8 °F /  7.7 °C 29.58 in /  1001.6 hPa SSW 12.0 mph /  19.3 km/h 20.0 mph /  32.2 km/h 85 % 0.00 in /  0 mm 0 W/m2
02:09 49.8 °F /  9.9 °C 45.5 °F /  7.5 °C 29.58 in /  1001.6 hPa SSW 16.0 mph /  25.7 km/h 29.0 mph /  46.7 km/h 85 % 0.00 in /  0 mm 0 W/m2
02:14 49.8 °F /  9.9 °C 45.8 °F /  7.7 °C 29.58 in /  1001.6 hPa SW 18.0 mph /  29 km/h 28.0 mph /  45.1 km/h 86 % 0.00 in /  0 mm 0 W/m2
02:19 49.6 °F /  9.8 °C 45.6 °F /  7.6 °C 29.58 in /  1001.6 hPa SSW 17.0 mph /  27.4 km/h 30.0 mph /  48.3 km/h 86 % 0.00 in /  0 mm 0 W/m2
02:24 49.6 °F /  9.8 °C 45.6 °F /  7.6 °C 29.58 in /  1001.6 hPa SSW 17.0 mph /  27.4 km/h 27.0 mph /  43.5 km/h 86 % 0.00 in /  0 mm 0 W/m2
02:29 49.6 °F /  9.8 °C 45.6 °F /  7.6 °C 29.57 in /  1001.2 hPa SSW 16.0 mph /  25.7 km/h 26.0 mph /  41.8 km/h 86 % 0.00 in /  0 mm 0 W/m2
02:34 49.8 °F /  9.9 °C 45.8 °F /  7.7 °C 29.57 in /  1001.2 hPa SSW 18.0 mph /  29 km/h 31.0 mph /  49.9 km/h 86 % 0.00 in /  0 mm 0 W/m2
02:44 50.0 °F /  10 °C 46.0 °F /  7.8 °C 29.55 in /  1000.6 hPa SSW 19.0 mph /  30.6 km/h 27.0 mph /  43.5 km/h 86 % 0.00 in /  0 mm 0 W/m2
02:55 50.2 °F /  10.1 °C 46.2 °F /  7.9 °C 29.55 in /  1000.6 hPa SSW 25.0 mph /  40.2 km/h 37.0 mph /  59.5 km/h 86 % 0.00 in /  0 mm 0 W/m2
03:00 50.2 °F /  10.1 °C 46.2 °F /  7.9 °C 29.54 in /  1000.2 hPa SSW 21.0 mph /  33.8 km/h 33.0 mph /  53.1 km/h 86 % 0.00 in /  0 mm 0 W/m2
03:04 50.0 °F /  10 °C 46.0 °F /  7.8 °C 29.54 in /  1000.2 hPa SW 21.0 mph /  33.8 km/h 32.0 mph /  51.5 km/h 86 % 0.00 in /  0 mm 0 W/m2
03:10 50.0 °F /  10 °C 46.0 °F /  7.8 °C 29.54 in /  1000.2 hPa SSW 21.0 mph /  33.8 km/h 33.0 mph /  53.1 km/h 86 % 0.00 in /  0 mm 0 W/m2
03:15 50.0 °F /  10 °C 45.7 °F /  7.6 °C 29.53 in /  999.9 hPa SSW 17.0 mph /  27.4 km/h 29.0 mph /  46.7 km/h 85 % 0.00 in /  0 mm 0 W/m2
03:20 50.0 °F /  10 °C 46.0 °F /  7.8 °C 29.53 in /  999.9 hPa SSW 20.0 mph /  32.2 km/h 30.0 mph /  48.3 km/h 86 % 0.00 in /  0 mm 0 W/m2
03:25 50.0 °F /  10 °C 46.0 °F /  7.8 °C 29.52 in /  999.5 hPa SSW 18.0 mph /  29 km/h 29.0 mph /  46.7 km/h 86 % 0.00 in /  0 mm 0 W/m2
03:30 50.2 °F /  10.1 °C 45.8 °F /  7.7 °C 29.52 in /  999.5 hPa SSW 22.0 mph /  35.4 km/h 32.0 mph /  51.5 km/h 85 % 0.00 in /  0 mm 0 W/m2
03:35 50.2 °F /  10.1 °C 45.8 °F /  7.7 °C 29.51 in /  999.2 hPa SSW 22.0 mph /  35.4 km/h 35.0 mph /  56.3 km/h 85 % 0.00 in /  0 mm 0 W/m2
03:45 50.4 °F /  10.2 °C 46.0 °F /  7.8 °C 29.50 in /  998.9 hPa SSW 21.0 mph /  33.8 km/h 34.0 mph /  54.7 km/h 85 % 0.00 in /  0 mm 0 W/m2
03:50 50.4 °F /  10.2 °C 46.0 °F /  7.8 °C 29.49 in /  998.5 hPa SSW 22.0 mph /  35.4 km/h 36.0 mph /  57.9 km/h 85 % 0.00 in /  0 mm 0 W/m2
04:00 50.4 °F /  10.2 °C 46.0 °F /  7.8 °C 29.48 in /  998.2 hPa SSW 21.0 mph /  33.8 km/h 31.0 mph /  49.9 km/h 85 % 0.00 in /  0 mm 0 W/m2
04:05 50.5 °F /  10.3 °C 46.2 °F /  7.9 °C 29.47 in /  997.9 hPa SSW 20.0 mph /  32.2 km/h 29.0 mph /  46.7 km/h 85 % 0.00 in /  0 mm 0 W/m2
04:10 50.7 °F /  10.4 °C 46.4 °F /  8 °C 29.47 in /  997.9 hPa SSW 21.0 mph /  33.8 km/h 39.0 mph /  62.8 km/h 85 % 0.00 in /  0 mm 0 W/m2
04:15 50.9 °F /  10.5 °C 46.6 °F /  8.1 °C 29.46 in /  997.5 hPa SSW 21.0 mph /  33.8 km/h 42.0 mph /  67.6 km/h 85 % 0.00 in /  0 mm 0 W/m2
04:25 51.3 °F /  10.7 °C 46.6 °F /  8.1 °C 29.46 in /  997.5 hPa SSW 18.0 mph /  29 km/h 31.0 mph /  49.9 km/h 84 % 0.00 in /  0 mm 0 W/m2
04:30 51.3 °F /  10.7 °C 46.9 °F /  8.3 °C 29.45 in /  997.2 hPa SSW 26.0 mph /  41.8 km/h 36.0 mph /  57.9 km/h 85 % 0.00 in /  0 mm 0 W/m2
04:35 51.4 °F /  10.8 °C 46.8 °F /  8.2 °C 29.45 in /  997.2 hPa SSW 24.0 mph /  38.6 km/h 37.0 mph /  59.5 km/h 84 % 0.00 in /  0 mm 0 W/m2
04:40 51.4 °F /  10.8 °C 46.8 °F /  8.2 °C 29.45 in /  997.2 hPa SSW 25.0 mph /  40.2 km/h 32.0 mph /  51.5 km/h 84 % 0.00 in /  0 mm 0 W/m2
04:45 51.6 °F /  10.9 °C 46.9 °F /  8.3 °C 29.44 in /  996.8 hPa SSW 24.0 mph /  38.6 km/h 44.0 mph /  70.8 km/h 84 % 0.00 in /  0 mm 0 W/m2
04:50 52.0 °F /  11.1 °C 47.3 °F /  8.5 °C 29.43 in /  996.5 hPa SSW 20.0 mph /  32.2 km/h 32.0 mph /  51.5 km/h 84 % 0.00 in /  0 mm 0 W/m2
04:55 52.0 °F /  11.1 °C 47.3 °F /  8.5 °C 29.44 in /  996.8 hPa SSW 20.0 mph /  32.2 km/h 32.0 mph /  51.5 km/h 84 % 0.00 in /  0 mm 0 W/m2
05:00 52.2 °F /  11.2 °C 47.5 °F /  8.6 °C 29.42 in /  996.2 hPa SSW 24.0 mph /  38.6 km/h 37.0 mph /  59.5 km/h 84 % 0.00 in /  0 mm 0 W/m2
05:05 52.2 °F /  11.2 °C 47.5 °F /  8.6 °C 29.42 in /  996.2 hPa SSW 20.0 mph /  32.2 km/h 31.0 mph /  49.9 km/h 84 % 0.00 in /  0 mm 0 W/m2
05:10 52.5 °F /  11.4 °C 47.8 °F /  8.8 °C 29.41 in /  995.8 hPa SSW 25.0 mph /  40.2 km/h 41.0 mph /  66 km/h 84 % 0.00 in /  0 mm 0 W/m2
05:15 52.7 °F /  11.5 °C 47.7 °F /  8.7 °C 29.42 in /  996.2 hPa SW 23.0 mph /  37 km/h 38.0 mph /  61.2 km/h 83 % 0.00 in /  0 mm 0 W/m2
05:18 52.9 °F /  11.6 °C 47.9 °F /  8.8 °C 29.41 in /  995.8 hPa SSW 26.0 mph /  41.8 km/h 46.0 mph /  74 km/h 83 % 0.00 in /  0 mm 0 W/m2
05:23 52.9 °F /  11.6 °C 47.9 °F /  8.8 °C 29.40 in /  995.5 hPa SSW 27.0 mph /  43.5 km/h 42.0 mph /  67.6 km/h 83 % 0.00 in /  0 mm 0 W/m2
05:28 53.1 °F /  11.7 °C 48.0 °F /  8.9 °C 29.40 in /  995.5 hPa SSW 25.0 mph /  40.2 km/h 32.0 mph /  51.5 km/h 83 % 0.00 in /  0 mm 0 W/m2
05:33 53.2 °F /  11.8 °C 48.2 °F /  9 °C 29.40 in /  995.5 hPa SSW 25.0 mph /  40.2 km/h 36.0 mph /  57.9 km/h 83 % 0.00 in /  0 mm 0 W/m2
05:38 53.4 °F /  11.9 °C 48.4 °F /  9.1 °C 29.40 in /  995.5 hPa SSW 23.0 mph /  37 km/h 39.0 mph /  62.8 km/h 83 % 0.00 in /  0 mm 0 W/m2
05:48 54.0 °F /  12.2 °C 48.6 °F /  9.2 °C 29.40 in /  995.5 hPa SSW 26.0 mph /  41.8 km/h 44.0 mph /  70.8 km/h 82 % 0.00 in /  0 mm 0 W/m2
05:53 54.1 °F /  12.3 °C 48.4 °F /  9.1 °C 29.38 in /  994.8 hPa SSW 22.0 mph /  35.4 km/h 44.0 mph /  70.8 km/h 81 % 0.00 in /  0 mm 0 W/m2
06:03 54.5 °F /  12.5 °C 48.8 °F /  9.3 °C 29.37 in /  994.5 hPa SSW 24.0 mph /  38.6 km/h 36.0 mph /  57.9 km/h 81 % 0.00 in /  0 mm 0 W/m2
06:08 54.7 °F /  12.6 °C 49.0 °F /  9.4 °C 29.38 in /  994.8 hPa SW 24.0 mph /  38.6 km/h 39.0 mph /  62.8 km/h 81 % 0.00 in /  0 mm 0 W/m2
06:18 54.9 °F /  12.7 °C 48.8 °F /  9.3 °C 29.37 in /  994.5 hPa SSW 23.0 mph /  37 km/h 40.0 mph /  64.4 km/h 80 % 0.00 in /  0 mm 0 W/m2
06:23 54.9 °F /  12.7 °C 48.8 °F /  9.3 °C 29.38 in /  994.8 hPa SW 26.0 mph /  41.8 km/h 34.0 mph /  54.7 km/h 80 % 0.00 in /  0 mm 0 W/m2
06:28 55.0 °F /  12.8 °C 49.0 °F /  9.4 °C 29.37 in /  994.5 hPa SW 20.0 mph /  32.2 km/h 33.0 mph /  53.1 km/h 80 % 0.00 in /  0 mm 0 W/m2
06:38 55.2 °F /  12.9 °C 49.2 °F /  9.6 °C 29.36 in /  994.1 hPa SW 25.0 mph /  40.2 km/h 36.0 mph /  57.9 km/h 80 % 0.00 in /  0 mm 0 W/m2
06:54 55.0 °F /  12.8 °C 49.6 °F /  9.8 °C 29.35 in /  993.8 hPa SW 27.0 mph /  43.5 km/h 38.0 mph /  61.2 km/h 82 % 0.00 in /  0 mm 0 W/m2
06:59 54.9 °F /  12.7 °C 49.8 °F /  9.9 °C 29.35 in /  993.8 hPa SW 28.0 mph /  45.1 km/h 41.0 mph /  66 km/h 83 % 0.00 in /  0 mm 0 W/m2
07:04 54.7 °F /  12.6 °C 49.9 °F /  9.9 °C 29.34 in /  993.5 hPa SW 26.0 mph /  41.8 km/h 41.0 mph /  66 km/h 84 % 0.00 in /  0 mm 0 W/m2
07:09 54.3 °F /  12.4 °C 49.9 °F /  9.9 °C 29.34 in /  993.5 hPa SSW 22.0 mph /  35.4 km/h 39.0 mph /  62.8 km/h 85 % 0.00 in /  0 mm 0 W/m2
07:14 54.3 °F /  12.4 °C 49.9 °F /  9.9 °C 29.34 in /  993.5 hPa SW 19.0 mph /  30.6 km/h 29.0 mph /  46.7 km/h 85 % 0.00 in /  0 mm 0 W/m2
07:19 54.3 °F /  12.4 °C 49.9 °F /  9.9 °C 29.33 in /  993.1 hPa SW 23.0 mph /  37 km/h 35.0 mph /  56.3 km/h 85 % 0.00 in /  0 mm 0 W/m2
07:24 54.3 °F /  12.4 °C 49.9 °F /  9.9 °C 29.33 in /  993.1 hPa SW 19.0 mph /  30.6 km/h 31.0 mph /  49.9 km/h 85 % 0.00 in /  0 mm 0 W/m2
07:29 54.1 °F /  12.3 °C 50.4 °F /  10.2 °C 29.34 in /  993.5 hPa SW 21.0 mph /  33.8 km/h 34.0 mph /  54.7 km/h 87 % 0.00 in /  0 mm 0 W/m2
07:39 53.6 °F /  12 °C 50.1 °F /  10.1 °C 29.35 in /  993.8 hPa SW 17.0 mph /  27.4 km/h 27.0 mph /  43.5 km/h 88 % 0.00 in /  0 mm 0 W/m2
07:44 52.3 °F /  11.3 °C 48.3 °F /  9.1 °C 29.38 in /  994.8 hPa WSW 23.0 mph /  37 km/h 33.0 mph /  53.1 km/h 86 % 0.01 in /  0.25 mm 0 W/m2
07:49 50.7 °F /  10.4 °C 47.3 °F /  8.5 °C 29.38 in /  994.8 hPa WSW 19.0 mph /  30.6 km/h 29.0 mph /  46.7 km/h 88 % 0.02 in /  0.51 mm 0 W/m2
07:54 49.8 °F /  9.9 °C 46.4 °F /  8 °C 29.38 in /  994.8 hPa West 21.0 mph /  33.8 km/h 28.0 mph /  45.1 km/h 88 % 0.02 in /  0.51 mm 0 W/m2
07:59 49.5 °F /  9.7 °C 46.1 °F /  7.8 °C 29.38 in /  994.8 hPa West 18.0 mph /  29 km/h 26.0 mph /  41.8 km/h 88 % 0.02 in /  0.51 mm 0 W/m2
08:04 49.1 °F /  9.5 °C 45.7 °F /  7.6 °C 29.39 in /  995.1 hPa West 20.0 mph /  32.2 km/h 31.0 mph /  49.9 km/h 88 % 0.02 in /  0.51 mm 0 W/m2
08:14 48.6 °F /  9.2 °C 45.5 °F /  7.5 °C 29.40 in /  995.5 hPa West 18.0 mph /  29 km/h 29.0 mph /  46.7 km/h 89 % 0.02 in /  0.51 mm 5 W/m2
08:19 48.6 °F /  9.2 °C 45.5 °F /  7.5 °C 29.40 in /  995.5 hPa WSW 18.0 mph /  29 km/h 27.0 mph /  43.5 km/h 89 % 0.02 in /  0.51 mm 7 W/m2
08:29 48.0 °F /  8.9 °C 44.9 °F /  7.2 °C 29.40 in /  995.5 hPa West 14.0 mph /  22.5 km/h 21.0 mph /  33.8 km/h 89 % 0.02 in /  0.51 mm 7 W/m2
08:39 47.7 °F /  8.7 °C 44.9 °F /  7.2 °C 29.40 in /  995.5 hPa WSW 20.0 mph /  32.2 km/h 29.0 mph /  46.7 km/h 90 % 0.03 in /  0.76 mm 5 W/m2
08:45 47.3 °F /  8.5 °C 44.2 °F /  6.8 °C 29.40 in /  995.5 hPa WSW 17.0 mph /  27.4 km/h 26.0 mph /  41.8 km/h 89 % 0.03 in /  0.76 mm 5 W/m2
08:50 46.9 °F /  8.3 °C 43.9 °F /  6.6 °C 29.41 in /  995.8 hPa WSW 18.0 mph /  29 km/h 33.0 mph /  53.1 km/h 89 % 0.02 in /  0.51 mm 7 W/m2
08:55 46.8 °F /  8.2 °C 43.4 °F /  6.3 °C 29.42 in /  996.2 hPa WSW 18.0 mph /  29 km/h 28.0 mph /  45.1 km/h 88 % 0.03 in /  0.76 mm 7 W/m2
09:00 46.6 °F /  8.1 °C 42.9 °F /  6.1 °C 29.41 in /  995.8 hPa WSW 20.0 mph /  32.2 km/h 28.0 mph /  45.1 km/h 87 % 0.03 in /  0.76 mm 7 W/m2
09:05 46.2 °F /  7.9 °C 42.6 °F /  5.9 °C 29.41 in /  995.8 hPa WSW 22.0 mph /  35.4 km/h 36.0 mph /  57.9 km/h 87 % 0.04 in /  1.02 mm 9 W/m2
09:10 46.0 °F /  7.8 °C 42.7 °F /  5.9 °C 29.41 in /  995.8 hPa WSW 20.0 mph /  32.2 km/h 31.0 mph /  49.9 km/h 88 % 0.05 in /  1.27 mm 14 W/m2
09:20 45.9 °F /  7.7 °C 42.5 °F /  5.8 °C 29.41 in /  995.8 hPa WSW 18.0 mph /  29 km/h 28.0 mph /  45.1 km/h 88 % 0.06 in /  1.52 mm 18 W/m2
09:25 45.7 °F /  7.6 °C 42.3 °F /  5.7 °C 29.42 in /  996.2 hPa WSW 20.0 mph /  32.2 km/h 27.0 mph /  43.5 km/h 88 % 0.06 in /  1.52 mm 12 W/m2
09:30 45.7 °F /  7.6 °C 42.3 °F /  5.7 °C 29.42 in /  996.2 hPa WSW 19.0 mph /  30.6 km/h 26.0 mph /  41.8 km/h 88 % 0.05 in /  1.27 mm 14 W/m2
09:35 45.3 °F /  7.4 °C 41.7 °F /  5.4 °C 29.43 in /  996.5 hPa WSW 20.0 mph /  32.2 km/h 32.0 mph /  51.5 km/h 87 % 0.05 in /  1.27 mm 18 W/m2
09:40 45.1 °F /  7.3 °C 41.5 °F /  5.3 °C 29.42 in /  996.2 hPa WSW 21.0 mph /  33.8 km/h 33.0 mph /  53.1 km/h 87 % 0.04 in /  1.02 mm 26 W/m2
09:45 45.0 °F /  7.2 °C 41.6 °F /  5.3 °C 29.41 in /  995.8 hPa WSW 16.0 mph /  25.7 km/h 27.0 mph /  43.5 km/h 88 % 0.03 in /  0.76 mm 39 W/m2
09:50 44.8 °F /  7.1 °C 41.7 °F /  5.4 °C 29.41 in /  995.8 hPa West 14.0 mph /  22.5 km/h 23.0 mph /  37 km/h 89 % 0.03 in /  0.76 mm 42 W/m2
09:55 44.4 °F /  6.9 °C 41.4 °F /  5.2 °C 29.40 in /  995.5 hPa West 16.0 mph /  25.7 km/h 27.0 mph /  43.5 km/h 89 % 0.02 in /  0.51 mm 35 W/m2
10:00 44.4 °F /  6.9 °C 41.4 °F /  5.2 °C 29.41 in /  995.8 hPa WSW 15.0 mph /  24.1 km/h 24.0 mph /  38.6 km/h 89 % 0.03 in /  0.76 mm 26 W/m2
10:05 44.4 °F /  6.9 °C 41.7 °F /  5.4 °C 29.42 in /  996.2 hPa WSW 14.0 mph /  22.5 km/h 21.0 mph /  33.8 km/h 90 % 0.02 in /  0.51 mm 28 W/m2
10:10 44.4 °F /  6.9 °C 41.7 °F /  5.4 °C 29.42 in /  996.2 hPa WSW 15.0 mph /  24.1 km/h 27.0 mph /  43.5 km/h 90 % 0.02 in /  0.51 mm 28 W/m2
10:15 44.4 °F /  6.9 °C 41.4 °F /  5.2 °C 29.43 in /  996.5 hPa WSW 13.0 mph /  20.9 km/h 25.0 mph /  40.2 km/h 89 % 0.02 in /  0.51 mm 21 W/m2
10:20 44.4 °F /  6.9 °C 41.4 °F /  5.2 °C 29.43 in /  996.5 hPa WSW 11.0 mph /  17.7 km/h 20.0 mph /  32.2 km/h 89 % 0.02 in /  0.51 mm 14 W/m2
10:25 44.4 °F /  6.9 °C 41.4 °F /  5.2 °C 29.43 in /  996.5 hPa WSW 14.0 mph /  22.5 km/h 24.0 mph /  38.6 km/h 89 % 0.02 in /  0.51 mm 21 W/m2
10:30 44.4 °F /  6.9 °C 41.4 °F /  5.2 °C 29.44 in /  996.8 hPa SW 14.0 mph /  22.5 km/h 21.0 mph /  33.8 km/h 89 % 0.02 in /  0.51 mm 21 W/m2
10:35 44.4 °F /  6.9 °C 41.4 °F /  5.2 °C 29.43 in /  996.5 hPa WSW 12.0 mph /  19.3 km/h 21.0 mph /  33.8 km/h 89 % 0.03 in /  0.76 mm 25 W/m2
10:40 44.4 °F /  6.9 °C 41.4 °F /  5.2 °C 29.43 in /  996.5 hPa WSW 13.0 mph /  20.9 km/h 22.0 mph /  35.4 km/h 89 % 0.03 in /  0.76 mm 26 W/m2
10:45 44.4 °F /  6.9 °C 41.4 °F /  5.2 °C 29.43 in /  996.5 hPa WSW 9.0 mph /  14.5 km/h 13.0 mph /  20.9 km/h 89 % 0.03 in /  0.76 mm 37 W/m2
10:50 44.4 °F /  6.9 °C 41.7 °F /  5.4 °C 29.43 in /  996.5 hPa WSW 11.0 mph /  17.7 km/h 16.0 mph /  25.7 km/h 90 % 0.03 in /  0.76 mm 30 W/m2
10:55 44.4 °F /  6.9 °C 41.7 °F /  5.4 °C 29.43 in /  996.5 hPa WSW 11.0 mph /  17.7 km/h 15.0 mph /  24.1 km/h 90 % 0.04 in /  1.02 mm 30 W/m2
11:00 44.4 °F /  6.9 °C 41.7 °F /  5.4 °C 29.43 in /  996.5 hPa SW 14.0 mph /  22.5 km/h 21.0 mph /  33.8 km/h 90 % 0.03 in /  0.76 mm 28 W/m2
11:05 44.4 °F /  6.9 °C 41.4 °F /  5.2 °C 29.43 in /  996.5 hPa SW 12.0 mph /  19.3 km/h 21.0 mph /  33.8 km/h 89 % 0.03 in /  0.76 mm 30 W/m2
11:10 44.4 °F /  6.9 °C 41.4 °F /  5.2 °C 29.44 in /  996.8 hPa WSW 13.0 mph /  20.9 km/h 20.0 mph /  32.2 km/h 89 % 0.03 in /  0.76 mm 21 W/m2
11:15 44.4 °F /  6.9 °C 41.4 °F /  5.2 °C 29.44 in /  996.8 hPa WSW 16.0 mph /  25.7 km/h 25.0 mph /  40.2 km/h 89 % 0.02 in /  0.51 mm 19 W/m2
11:20 44.6 °F /  7 °C 41.3 °F /  5.2 °C 29.43 in /  996.5 hPa SW 18.0 mph /  29 km/h 28.0 mph /  45.1 km/h 88 % 0.02 in /  0.51 mm 23 W/m2
11:26 44.8 °F /  7.1 °C 41.1 °F /  5.1 °C 29.43 in /  996.5 hPa SW 16.0 mph /  25.7 km/h 33.0 mph /  53.1 km/h 87 % 0.02 in /  0.51 mm 28 W/m2
11:31 45.0 °F /  7.2 °C 40.7 °F /  4.8 °C 29.43 in /  996.5 hPa SW 17.0 mph /  27.4 km/h 26.0 mph /  41.8 km/h 85 % 0.01 in /  0.25 mm 30 W/m2
11:35 45.0 °F /  7.2 °C 40.7 °F /  4.8 °C 29.44 in /  996.8 hPa WSW 19.0 mph /  30.6 km/h 28.0 mph /  45.1 km/h 85 % 0.01 in /  0.25 mm 28 W/m2
11:41 45.1 °F /  7.3 °C 40.6 °F /  4.8 °C 29.43 in /  996.5 hPa SW 20.0 mph /  32.2 km/h 32.0 mph /  51.5 km/h 84 % 0.01 in /  0.25 mm 47 W/m2
11:46 45.1 °F /  7.3 °C 40.6 °F /  4.8 °C 29.42 in /  996.2 hPa SW 18.0 mph /  29 km/h 32.0 mph /  51.5 km/h 84 % 0.01 in /  0.25 mm 47 W/m2
11:51 45.1 °F /  7.3 °C 40.6 °F /  4.8 °C 29.42 in /  996.2 hPa SW 15.0 mph /  24.1 km/h 23.0 mph /  37 km/h 84 % 0.01 in /  0.25 mm 35 W/m2
11:56 45.0 °F /  7.2 °C 40.4 °F /  4.7 °C 29.41 in /  995.8 hPa SW 18.0 mph /  29 km/h 27.0 mph /  43.5 km/h 84 % 0.00 in /  0 mm 44 W/m2
12:01 45.1 °F /  7.3 °C 40.6 °F /  4.8 °C 29.42 in /  996.2 hPa SW 19.0 mph /  30.6 km/h 32.0 mph /  51.5 km/h 84 % 0.00 in /  0 mm 26 W/m2
12:06 45.1 °F /  7.3 °C 40.3 °F /  4.6 °C 29.42 in /  996.2 hPa SW 19.0 mph /  30.6 km/h 30.0 mph /  48.3 km/h 83 % 0.00 in /  0 mm 37 W/m2
12:11 45.1 °F /  7.3 °C 40.6 °F /  4.8 °C 29.41 in /  995.8 hPa SW 14.0 mph /  22.5 km/h 19.0 mph /  30.6 km/h 84 % 0.00 in /  0 mm 39 W/m2
12:16 45.0 °F /  7.2 °C 40.4 °F /  4.7 °C 29.42 in /  996.2 hPa SW 13.0 mph /  20.9 km/h 20.0 mph /  32.2 km/h 84 % 0.00 in /  0 mm 39 W/m2
12:21 45.0 °F /  7.2 °C 40.4 °F /  4.7 °C 29.43 in /  996.5 hPa SW 15.0 mph /  24.1 km/h 27.0 mph /  43.5 km/h 84 % 0.00 in /  0 mm 40 W/m2
12:26 45.1 °F /  7.3 °C 40.6 °F /  4.8 °C 29.43 in /  996.5 hPa SW 17.0 mph /  27.4 km/h 28.0 mph /  45.1 km/h 84 % 0.00 in /  0 mm 65 W/m2
12:31 45.1 °F /  7.3 °C 40.6 °F /  4.8 °C 29.42 in /  996.2 hPa WSW 14.0 mph /  22.5 km/h 22.0 mph /  35.4 km/h 84 % 0.00 in /  0 mm 114 W/m2
12:36 45.3 °F /  7.4 °C 40.5 °F /  4.7 °C 29.41 in /  995.8 hPa SW 13.0 mph /  20.9 km/h 20.0 mph /  32.2 km/h 83 % 0.00 in /  0 mm 60 W/m2
12:41 45.3 °F /  7.4 °C 40.5 °F /  4.7 °C 29.43 in /  996.5 hPa SW 14.0 mph /  22.5 km/h 21.0 mph /  33.8 km/h 83 % 0.00 in /  0 mm 60 W/m2
12:46 45.5 °F /  7.5 °C 40.6 °F /  4.8 °C 29.44 in /  996.8 hPa SW 16.0 mph /  25.7 km/h 23.0 mph /  37 km/h 83 % 0.00 in /  0 mm 67 W/m2
12:51 45.7 °F /  7.6 °C 40.5 °F /  4.7 °C 29.42 in /  996.2 hPa SW 13.0 mph /  20.9 km/h 22.0 mph /  35.4 km/h 82 % 0.00 in /  0 mm 91 W/m2
12:56 45.7 °F /  7.6 °C 40.5 °F /  4.7 °C 29.43 in /  996.5 hPa SW 16.0 mph /  25.7 km/h 25.0 mph /  40.2 km/h 82 % 0.00 in /  0 mm 113 W/m2
13:01 45.9 °F /  7.7 °C 40.7 °F /  4.8 °C 29.44 in /  996.8 hPa WSW 14.0 mph /  22.5 km/h 21.0 mph /  33.8 km/h 82 % 0.00 in /  0 mm 104 W/m2
13:02 45.9 °F /  7.7 °C 40.7 °F /  4.8 °C 29.44 in /  996.8 hPa SW 15.0 mph /  24.1 km/h 22.0 mph /  35.4 km/h 82 % 0.00 in /  0 mm 102 W/m2
13:12 46.2 °F /  7.9 °C 41.0 °F /  5 °C 29.42 in /  996.2 hPa SW 13.0 mph /  20.9 km/h 20.0 mph /  32.2 km/h 82 % 0.00 in /  0 mm 95 W/m2
13:17 46.2 °F /  7.9 °C 41.0 °F /  5 °C 29.43 in /  996.5 hPa SW 14.0 mph /  22.5 km/h 23.0 mph /  37 km/h 82 % 0.00 in /  0 mm 98 W/m2
13:22 46.4 °F /  8 °C 40.9 °F /  4.9 °C 29.43 in /  996.5 hPa SW 14.0 mph /  22.5 km/h 23.0 mph /  37 km/h 81 % 0.00 in /  0 mm 84 W/m2
13:27 46.4 °F /  8 °C 41.2 °F /  5.1 °C 29.44 in /  996.8 hPa SW 16.0 mph /  25.7 km/h 30.0 mph /  48.3 km/h 82 % 0.00 in /  0 mm 100 W/m2
13:37 46.6 °F /  8.1 °C 41.4 °F /  5.2 °C 29.42 in /  996.2 hPa SW 10.0 mph /  16.1 km/h 20.0 mph /  32.2 km/h 82 % 0.00 in /  0 mm 107 W/m2
13:42 46.8 °F /  8.2 °C 41.6 °F /  5.3 °C 29.43 in /  996.5 hPa SW 11.0 mph /  17.7 km/h 20.0 mph /  32.2 km/h 82 % 0.00 in /  0 mm 95 W/m2
13:47 46.8 °F /  8.2 °C 41.6 °F /  5.3 °C 29.43 in /  996.5 hPa SW 14.0 mph /  22.5 km/h 22.0 mph /  35.4 km/h 82 % 0.00 in /  0 mm 76 W/m2
13:52 46.8 °F /  8.2 °C 41.6 °F /  5.3 °C 29.42 in /  996.2 hPa WSW 12.0 mph /  19.3 km/h 19.0 mph /  30.6 km/h 82 % 0.00 in /  0 mm 97 W/m2
13:57 46.8 °F /  8.2 °C 41.6 °F /  5.3 °C 29.42 in /  996.2 hPa SW 13.0 mph /  20.9 km/h 22.0 mph /  35.4 km/h 82 % 0.00 in /  0 mm 90 W/m2
14:02 46.8 °F /  8.2 °C 41.6 °F /  5.3 °C 29.43 in /  996.5 hPa SW 15.0 mph /  24.1 km/h 23.0 mph /  37 km/h 82 % 0.00 in /  0 mm 90 W/m2
14:07 46.9 °F /  8.3 °C 41.4 °F /  5.2 °C 29.44 in /  996.8 hPa SW 16.0 mph /  25.7 km/h 27.0 mph /  43.5 km/h 81 % 0.00 in /  0 mm 109 W/m2
14:12 47.1 °F /  8.4 °C 41.6 °F /  5.3 °C 29.43 in /  996.5 hPa SW 13.0 mph /  20.9 km/h 23.0 mph /  37 km/h 81 % 0.00 in /  0 mm 111 W/m2
14:17 47.1 °F /  8.4 °C 41.6 °F /  5.3 °C 29.42 in /  996.2 hPa SW 11.0 mph /  17.7 km/h 18.0 mph /  29 km/h 81 % 0.00 in /  0 mm 79 W/m2
14:22 47.1 °F /  8.4 °C 41.6 °F /  5.3 °C 29.43 in /  996.5 hPa SW 14.0 mph /  22.5 km/h 25.0 mph /  40.2 km/h 81 % 0.00 in /  0 mm 95 W/m2
14:27 47.1 °F /  8.4 °C 41.6 °F /  5.3 °C 29.43 in /  996.5 hPa SW 12.0 mph /  19.3 km/h 20.0 mph /  32.2 km/h 81 % 0.00 in /  0 mm 67 W/m2
14:32 47.1 °F /  8.4 °C 41.6 °F /  5.3 °C 29.43 in /  996.5 hPa SW 13.0 mph /  20.9 km/h 21.0 mph /  33.8 km/h 81 % 0.00 in /  0 mm 72 W/m2
14:37 47.1 °F /  8.4 °C 41.6 °F /  5.3 °C 29.43 in /  996.5 hPa SW 9.0 mph /  14.5 km/h 15.0 mph /  24.1 km/h 81 % 0.00 in /  0 mm 74 W/m2
14:42 47.1 °F /  8.4 °C 41.6 °F /  5.3 °C 29.43 in /  996.5 hPa SW 13.0 mph /  20.9 km/h 21.0 mph /  33.8 km/h 81 % 0.00 in /  0 mm 63 W/m2
14:52 47.1 °F /  8.4 °C 41.6 °F /  5.3 °C 29.43 in /  996.5 hPa SW 13.0 mph /  20.9 km/h 19.0 mph /  30.6 km/h 81 % 0.00 in /  0 mm 42 W/m2
14:57 47.1 °F /  8.4 °C 41.6 °F /  5.3 °C 29.44 in /  996.8 hPa SW 15.0 mph /  24.1 km/h 21.0 mph /  33.8 km/h 81 % 0.00 in /  0 mm 53 W/m2
15:08 47.1 °F /  8.4 °C 41.9 °F /  5.5 °C 29.43 in /  996.5 hPa SW 13.0 mph /  20.9 km/h 19.0 mph /  30.6 km/h 82 % 0.00 in /  0 mm 35 W/m2
15:13 47.1 °F /  8.4 °C 41.9 °F /  5.5 °C 29.44 in /  996.8 hPa SW 12.0 mph /  19.3 km/h 18.0 mph /  29 km/h 82 % 0.00 in /  0 mm 54 W/m2
15:18 46.9 °F /  8.3 °C 41.7 °F /  5.4 °C 29.44 in /  996.8 hPa WSW 12.0 mph /  19.3 km/h 20.0 mph /  32.2 km/h 82 % 0.00 in /  0 mm 60 W/m2
15:28 46.9 °F /  8.3 °C 41.7 °F /  5.4 °C 29.44 in /  996.8 hPa SW 12.0 mph /  19.3 km/h 18.0 mph /  29 km/h 82 % 0.00 in /  0 mm 26 W/m2
15:33 46.8 °F /  8.2 °C 41.6 °F /  5.3 °C 29.44 in /  996.8 hPa SW 14.0 mph /  22.5 km/h 22.0 mph /  35.4 km/h 82 % 0.00 in /  0 mm 47 W/m2
15:38 46.8 °F /  8.2 °C 41.6 °F /  5.3 °C 29.44 in /  996.8 hPa WSW 10.0 mph /  16.1 km/h 20.0 mph /  32.2 km/h 82 % 0.00 in /  0 mm 30 W/m2
15:48 46.4 °F /  8 °C 41.2 °F /  5.1 °C 29.44 in /  996.8 hPa SW 10.0 mph /  16.1 km/h 15.0 mph /  24.1 km/h 82 % 0.00 in /  0 mm 33 W/m2
15:53 46.4 °F /  8 °C 41.2 °F /  5.1 °C 29.44 in /  996.8 hPa WSW 10.0 mph /  16.1 km/h 15.0 mph /  24.1 km/h 82 % 0.00 in /  0 mm 26 W/m2
16:03 46.4 °F /  8 °C 41.2 °F /  5.1 °C 29.45 in /  997.2 hPa WSW 15.0 mph /  24.1 km/h 21.0 mph /  33.8 km/h 82 % 0.00 in /  0 mm 21 W/m2
16:08 46.6 °F /  8.1 °C 40.7 °F /  4.8 °C 29.45 in /  997.2 hPa WSW 15.0 mph /  24.1 km/h 25.0 mph /  40.2 km/h 80 % 0.00 in /  0 mm 18 W/m2
16:13 46.6 °F /  8.1 °C 40.7 °F /  4.8 °C 29.45 in /  997.2 hPa WSW 13.0 mph /  20.9 km/h 21.0 mph /  33.8 km/h 80 % 0.00 in /  0 mm 14 W/m2
16:18 46.6 °F /  8.1 °C 40.4 °F /  4.7 °C 29.45 in /  997.2 hPa WSW 12.0 mph /  19.3 km/h 21.0 mph /  33.8 km/h 79 % 0.00 in /  0 mm 11 W/m2
16:23 46.6 °F /  8.1 °C 40.7 °F /  4.8 °C 29.45 in /  997.2 hPa WSW 13.0 mph /  20.9 km/h 20.0 mph /  32.2 km/h 80 % 0.00 in /  0 mm 9 W/m2
16:28 46.4 °F /  8 °C 40.6 °F /  4.8 °C 29.45 in /  997.2 hPa WSW 13.0 mph /  20.9 km/h 19.0 mph /  30.6 km/h 80 % 0.00 in /  0 mm 7 W/m2
16:38 46.2 °F /  7.9 °C 40.4 °F /  4.7 °C 29.45 in /  997.2 hPa SW 12.0 mph /  19.3 km/h 19.0 mph /  30.6 km/h 80 % 0.00 in /  0 mm 5 W/m2
16:43 46.2 °F /  7.9 °C 40.4 °F /  4.7 °C 29.45 in /  997.2 hPa SW 14.0 mph /  22.5 km/h 21.0 mph /  33.8 km/h 80 % 0.00 in /  0 mm 0 W/m2
16:48 46.2 °F /  7.9 °C 40.4 °F /  4.7 °C 29.45 in /  997.2 hPa SW 12.0 mph /  19.3 km/h 16.0 mph /  25.7 km/h 80 % 0.00 in /  0 mm 0 W/m2
16:53 46.2 °F /  7.9 °C 40.1 °F /  4.5 °C 29.45 in /  997.2 hPa SW 15.0 mph /  24.1 km/h 25.0 mph /  40.2 km/h 79 % 0.00 in /  0 mm 0 W/m2
17:03 46.2 °F /  7.9 °C 39.7 °F /  4.3 °C 29.46 in /  997.5 hPa SW 15.0 mph /  24.1 km/h 27.0 mph /  43.5 km/h 78 % 0.00 in /  0 mm 0 W/m2
17:08 46.0 °F /  7.8 °C 39.6 °F /  4.2 °C 29.46 in /  997.5 hPa WSW 13.0 mph /  20.9 km/h 18.0 mph /  29 km/h 78 % 0.00 in /  0 mm 0 W/m2
17:13 45.9 °F /  7.7 °C 39.4 °F /  4.1 °C 29.46 in /  997.5 hPa SW 14.0 mph /  22.5 km/h 22.0 mph /  35.4 km/h 78 % 0.00 in /  0 mm 0 W/m2
17:18 45.9 °F /  7.7 °C 39.7 °F /  4.3 °C 29.46 in /  997.5 hPa WSW 13.0 mph /  20.9 km/h 19.0 mph /  30.6 km/h 79 % 0.00 in /  0 mm 0 W/m2
17:23 45.7 °F /  7.6 °C 39.5 °F /  4.2 °C 29.46 in /  997.5 hPa SW 14.0 mph /  22.5 km/h 21.0 mph /  33.8 km/h 79 % 0.00 in /  0 mm 0 W/m2
17:28 45.7 °F /  7.6 °C 39.5 °F /  4.2 °C 29.46 in /  997.5 hPa WSW 15.0 mph /  24.1 km/h 25.0 mph /  40.2 km/h 79 % 0.00 in /  0 mm 0 W/m2
17:33 45.7 °F /  7.6 °C 39.5 °F /  4.2 °C 29.46 in /  997.5 hPa SW 14.0 mph /  22.5 km/h 21.0 mph /  33.8 km/h 79 % 0.00 in /  0 mm 0 W/m2
17:38 45.5 °F /  7.5 °C 39.4 °F /  4.1 °C 29.47 in /  997.9 hPa SW 13.0 mph /  20.9 km/h 19.0 mph /  30.6 km/h 79 % 0.00 in /  0 mm 0 W/m2
17:43 45.5 °F /  7.5 °C 39.4 °F /  4.1 °C 29.47 in /  997.9 hPa WSW 11.0 mph /  17.7 km/h 16.0 mph /  25.7 km/h 79 % 0.00 in /  0 mm 0 W/m2
17:48 45.3 °F /  7.4 °C 39.5 °F /  4.2 °C 29.47 in /  997.9 hPa WSW 13.0 mph /  20.9 km/h 22.0 mph /  35.4 km/h 80 % 0.00 in /  0 mm 0 W/m2
17:53 45.3 °F /  7.4 °C 39.5 °F /  4.2 °C 29.47 in /  997.9 hPa SW 10.0 mph /  16.1 km/h 15.0 mph /  24.1 km/h 80 % 0.00 in /  0 mm 0 W/m2
17:58 45.1 °F /  7.3 °C 39.7 °F /  4.3 °C 29.47 in /  997.9 hPa SW 11.0 mph /  17.7 km/h 18.0 mph /  29 km/h 81 % 0.00 in /  0 mm 0 W/m2
18:03 45.1 °F /  7.3 °C 39.7 °F /  4.3 °C 29.48 in /  998.2 hPa SW 12.0 mph /  19.3 km/h 20.0 mph /  32.2 km/h 81 % 0.00 in /  0 mm 0 W/m2
18:08 45.1 °F /  7.3 °C 39.7 °F /  4.3 °C 29.48 in /  998.2 hPa SW 11.0 mph /  17.7 km/h 18.0 mph /  29 km/h 81 % 0.00 in /  0 mm 0 W/m2
18:13 45.1 °F /  7.3 °C 39.7 °F /  4.3 °C 29.48 in /  998.2 hPa WSW 10.0 mph /  16.1 km/h 16.0 mph /  25.7 km/h 81 % 0.00 in /  0 mm 0 W/m2
18:19 45.1 °F /  7.3 °C 39.7 °F /  4.3 °C 29.48 in /  998.2 hPa WSW 11.0 mph /  17.7 km/h 16.0 mph /  25.7 km/h 81 % 0.00 in /  0 mm 0 W/m2
18:23 45.0 °F /  7.2 °C 39.5 °F /  4.2 °C 29.48 in /  998.2 hPa WSW 10.0 mph /  16.1 km/h 18.0 mph /  29 km/h 81 % 0.00 in /  0 mm 0 W/m2
18:29 45.0 °F /  7.2 °C 39.5 °F /  4.2 °C 29.48 in /  998.2 hPa SW 12.0 mph /  19.3 km/h 20.0 mph /  32.2 km/h 81 % 0.00 in /  0 mm 0 W/m2
18:34 45.0 °F /  7.2 °C 39.5 °F /  4.2 °C 29.49 in /  998.5 hPa WSW 10.0 mph /  16.1 km/h 15.0 mph /  24.1 km/h 81 % 0.00 in /  0 mm 0 W/m2
18:39 45.0 °F /  7.2 °C 39.5 °F /  4.2 °C 29.49 in /  998.5 hPa WSW 11.0 mph /  17.7 km/h 18.0 mph /  29 km/h 81 % 0.00 in /  0 mm 0 W/m2
18:44 44.8 °F /  7.1 °C 39.3 °F /  4.1 °C 29.49 in /  998.5 hPa WSW 10.0 mph /  16.1 km/h 14.0 mph /  22.5 km/h 81 % 0.00 in /  0 mm 0 W/m2
18:49 44.8 °F /  7.1 °C 39.0 °F /  3.9 °C 29.49 in /  998.5 hPa WSW 11.0 mph /  17.7 km/h 19.0 mph /  30.6 km/h 80 % 0.00 in /  0 mm 0 W/m2
18:54 44.8 °F /  7.1 °C 39.0 °F /  3.9 °C 29.49 in /  998.5 hPa WSW 11.0 mph /  17.7 km/h 18.0 mph /  29 km/h 80 % 0.00 in /  0 mm 0 W/m2
18:59 44.8 °F /  7.1 °C 39.0 °F /  3.9 °C 29.49 in /  998.5 hPa WSW 11.0 mph /  17.7 km/h 22.0 mph /  35.4 km/h 80 % 0.00 in /  0 mm 0 W/m2
19:04 44.8 °F /  7.1 °C 39.0 °F /  3.9 °C 29.50 in /  998.9 hPa SW 13.0 mph /  20.9 km/h 23.0 mph /  37 km/h 80 % 0.00 in /  0 mm 0 W/m2
19:09 44.8 °F /  7.1 °C 39.0 °F /  3.9 °C 29.50 in /  998.9 hPa WSW 14.0 mph /  22.5 km/h 22.0 mph /  35.4 km/h 80 % 0.00 in /  0 mm 0 W/m2
19:19 44.6 °F /  7 °C 38.8 °F /  3.8 °C 29.50 in /  998.9 hPa WSW 12.0 mph /  19.3 km/h 20.0 mph /  32.2 km/h 80 % 0.00 in /  0 mm 0 W/m2
19:34 44.4 °F /  6.9 °C 38.3 °F /  3.5 °C 29.50 in /  998.9 hPa WSW 13.0 mph /  20.9 km/h 22.0 mph /  35.4 km/h 79 % 0.00 in /  0 mm 0 W/m2
19:39 44.4 °F /  6.9 °C 38.3 °F /  3.5 °C 29.50 in /  998.9 hPa WSW 10.0 mph /  16.1 km/h 16.0 mph /  25.7 km/h 79 % 0.00 in /  0 mm 0 W/m2
19:44 44.2 °F /  6.8 °C 38.5 °F /  3.6 °C 29.50 in /  998.9 hPa WSW 9.0 mph /  14.5 km/h 18.0 mph /  29 km/h 80 % 0.00 in /  0 mm 0 W/m2
19:54 44.1 °F /  6.7 °C 38.3 °F /  3.5 °C 29.50 in /  998.9 hPa SW 11.0 mph /  17.7 km/h 20.0 mph /  32.2 km/h 80 % 0.00 in /  0 mm 0 W/m2
19:59 44.2 °F /  6.8 °C 38.5 °F /  3.6 °C 29.50 in /  998.9 hPa WSW 13.0 mph /  20.9 km/h 23.0 mph /  37 km/h 80 % 0.00 in /  0 mm 0 W/m2
20:04 44.2 °F /  6.8 °C 38.5 °F /  3.6 °C 29.50 in /  998.9 hPa WSW 14.0 mph /  22.5 km/h 24.0 mph /  38.6 km/h 80 % 0.00 in /  0 mm 0 W/m2
20:09 44.2 °F /  6.8 °C 38.5 °F /  3.6 °C 29.51 in /  999.2 hPa WSW 12.0 mph /  19.3 km/h 18.0 mph /  29 km/h 80 % 0.00 in /  0 mm 0 W/m2
20:14 44.4 °F /  6.9 °C 39.0 °F /  3.9 °C 29.51 in /  999.2 hPa WSW 16.0 mph /  25.7 km/h 23.0 mph /  37 km/h 81 % 0.00 in /  0 mm 0 W/m2
20:19 44.8 °F /  7.1 °C 39.3 °F /  4.1 °C 29.51 in /  999.2 hPa WSW 15.0 mph /  24.1 km/h 27.0 mph /  43.5 km/h 81 % 0.00 in /  0 mm 0 W/m2
20:24 44.6 °F /  7 °C 39.4 °F /  4.1 °C 29.51 in /  999.2 hPa WSW 15.0 mph /  24.1 km/h 27.0 mph /  43.5 km/h 82 % 0.00 in /  0 mm 0 W/m2
20:29 44.2 °F /  6.8 °C 39.4 °F /  4.1 °C 29.51 in /  999.2 hPa SW 14.0 mph /  22.5 km/h 23.0 mph /  37 km/h 83 % 0.00 in /  0 mm 0 W/m2
20:34 44.2 °F /  6.8 °C 39.4 °F /  4.1 °C 29.51 in /  999.2 hPa WSW 14.0 mph /  22.5 km/h 22.0 mph /  35.4 km/h 83 % 0.00 in /  0 mm 0 W/m2
20:39 44.2 °F /  6.8 °C 39.1 °F /  3.9 °C 29.52 in /  999.5 hPa WSW 14.0 mph /  22.5 km/h 22.0 mph /  35.4 km/h 82 % 0.00 in /  0 mm 0 W/m2
20:44 44.2 °F /  6.8 °C 39.1 °F /  3.9 °C 29.52 in /  999.5 hPa SW 15.0 mph /  24.1 km/h 25.0 mph /  40.2 km/h 82 % 0.00 in /  0 mm 0 W/m2
20:49 44.2 °F /  6.8 °C 39.1 °F /  3.9 °C 29.52 in /  999.5 hPa SW 12.0 mph /  19.3 km/h 20.0 mph /  32.2 km/h 82 % 0.00 in /  0 mm 0 W/m2
20:54 44.1 °F /  6.7 °C 38.9 °F /  3.8 °C 29.52 in /  999.5 hPa WSW 12.0 mph /  19.3 km/h 18.0 mph /  29 km/h 82 % 0.00 in /  0 mm 0 W/m2
20:59 44.1 °F /  6.7 °C 38.9 °F /  3.8 °C 29.52 in /  999.5 hPa SW 11.0 mph /  17.7 km/h 18.0 mph /  29 km/h 82 % 0.00 in /  0 mm 0 W/m2
21:04 44.1 °F /  6.7 °C 38.9 °F /  3.8 °C 29.52 in /  999.5 hPa SW 14.0 mph /  22.5 km/h 20.0 mph /  32.2 km/h 82 % 0.00 in /  0 mm 0 W/m2
21:09 43.9 °F /  6.6 °C 38.7 °F /  3.7 °C 29.53 in /  999.9 hPa SW 10.0 mph /  16.1 km/h 19.0 mph /  30.6 km/h 82 % 0.00 in /  0 mm 0 W/m2
21:14 43.9 °F /  6.6 °C 38.7 °F /  3.7 °C 29.52 in /  999.5 hPa SW 13.0 mph /  20.9 km/h 20.0 mph /  32.2 km/h 82 % 0.00 in /  0 mm 0 W/m2
21:19 43.9 °F /  6.6 °C 38.7 °F /  3.7 °C 29.52 in /  999.5 hPa SW 9.0 mph /  14.5 km/h 16.0 mph /  25.7 km/h 82 % 0.00 in /  0 mm 0 W/m2
21:24 43.9 °F /  6.6 °C 38.7 °F /  3.7 °C 29.52 in /  999.5 hPa SW 13.0 mph /  20.9 km/h 20.0 mph /  32.2 km/h 82 % 0.00 in /  0 mm 0 W/m2
21:29 43.9 °F /  6.6 °C 38.7 °F /  3.7 °C 29.52 in /  999.5 hPa WSW 11.0 mph /  17.7 km/h 20.0 mph /  32.2 km/h 82 % 0.00 in /  0 mm 0 W/m2
21:34 43.7 °F /  6.5 °C 38.6 °F /  3.7 °C 29.52 in /  999.5 hPa WSW 12.0 mph /  19.3 km/h 20.0 mph /  32.2 km/h 82 % 0.00 in /  0 mm 0 W/m2
21:39 43.5 °F /  6.4 °C 38.4 °F /  3.6 °C 29.52 in /  999.5 hPa WSW 12.0 mph /  19.3 km/h 19.0 mph /  30.6 km/h 82 % 0.00 in /  0 mm 0 W/m2
21:44 43.5 °F /  6.4 °C 38.4 °F /  3.6 °C 29.52 in /  999.5 hPa SW 11.0 mph /  17.7 km/h 16.0 mph /  25.7 km/h 82 % 0.00 in /  0 mm 0 W/m2
21:49 43.5 °F /  6.4 °C 38.7 °F /  3.7 °C 29.53 in /  999.9 hPa SW 11.0 mph /  17.7 km/h 18.0 mph /  29 km/h 83 % 0.00 in /  0 mm 0 W/m2
21:54 43.3 °F /  6.3 °C 38.5 °F /  3.6 °C 29.53 in /  999.9 hPa WSW 11.0 mph /  17.7 km/h 18.0 mph /  29 km/h 83 % 0.00 in /  0 mm 0 W/m2
21:59 43.3 °F /  6.3 °C 38.5 °F /  3.6 °C 29.53 in /  999.9 hPa WSW 11.0 mph /  17.7 km/h 18.0 mph /  29 km/h 83 % 0.00 in /  0 mm 0 W/m2
22:04 43.3 °F /  6.3 °C 38.5 °F /  3.6 °C 29.53 in /  999.9 hPa SW 12.0 mph /  19.3 km/h 20.0 mph /  32.2 km/h 83 % 0.00 in /  0 mm 0 W/m2
22:09 43.3 °F /  6.3 °C 38.5 °F /  3.6 °C 29.53 in /  999.9 hPa SW 13.0 mph /  20.9 km/h 21.0 mph /  33.8 km/h 83 % 0.00 in /  0 mm 0 W/m2
22:14 43.3 °F /  6.3 °C 38.5 °F /  3.6 °C 29.53 in /  999.9 hPa WSW 13.0 mph /  20.9 km/h 20.0 mph /  32.2 km/h 83 % 0.00 in /  0 mm 0 W/m2
22:19 43.3 °F /  6.3 °C 38.5 °F /  3.6 °C 29.54 in /  1000.2 hPa WSW 15.0 mph /  24.1 km/h 24.0 mph /  38.6 km/h 83 % 0.00 in /  0 mm 0 W/m2
22:24 43.3 °F /  6.3 °C 38.5 °F /  3.6 °C 29.54 in /  1000.2 hPa SW 15.0 mph /  24.1 km/h 23.0 mph /  37 km/h 83 % 0.00 in /  0 mm 0 W/m2
22:29 43.3 °F /  6.3 °C 38.5 °F /  3.6 °C 29.54 in /  1000.2 hPa SW 11.0 mph /  17.7 km/h 16.0 mph /  25.7 km/h 83 % 0.00 in /  0 mm 0 W/m2
22:34 43.2 °F /  6.2 °C 38.3 °F /  3.5 °C 29.54 in /  1000.2 hPa SW 12.0 mph /  19.3 km/h 19.0 mph /  30.6 km/h 83 % 0.00 in /  0 mm 0 W/m2
22:39 43.2 °F /  6.2 °C 38.3 °F /  3.5 °C 29.54 in /  1000.2 hPa SW 13.0 mph /  20.9 km/h 20.0 mph /  32.2 km/h 83 % 0.00 in /  0 mm 0 W/m2
22:44 43.0 °F /  6.1 °C 38.2 °F /  3.4 °C 29.54 in /  1000.2 hPa WSW 14.0 mph /  22.5 km/h 21.0 mph /  33.8 km/h 83 % 0.00 in /  0 mm 0 W/m2
22:50 43.0 °F /  6.1 °C 38.2 °F /  3.4 °C 29.54 in /  1000.2 hPa WSW 13.0 mph /  20.9 km/h 21.0 mph /  33.8 km/h 83 % 0.00 in /  0 mm 0 W/m2
22:55 43.0 °F /  6.1 °C 38.2 °F /  3.4 °C 29.54 in /  1000.2 hPa SW 14.0 mph /  22.5 km/h 26.0 mph /  41.8 km/h 83 % 0.00 in /  0 mm 0 W/m2
23:00 43.2 °F /  6.2 °C 38.3 °F /  3.5 °C 29.54 in /  1000.2 hPa WSW 11.0 mph /  17.7 km/h 18.0 mph /  29 km/h 83 % 0.00 in /  0 mm 0 W/m2
23:05 43.2 °F /  6.2 °C 38.3 °F /  3.5 °C 29.54 in /  1000.2 hPa WSW 14.0 mph /  22.5 km/h 21.0 mph /  33.8 km/h 83 % 0.00 in /  0 mm 0 W/m2
23:10 43.2 °F /  6.2 °C 38.0 °F /  3.3 °C 29.54 in /  1000.2 hPa SW 13.0 mph /  20.9 km/h 20.0 mph /  32.2 km/h 82 % 0.00 in /  0 mm 0 W/m2
23:15 43.2 °F /  6.2 °C 37.7 °F /  3.2 °C 29.54 in /  1000.2 hPa WSW 13.0 mph /  20.9 km/h 20.0 mph /  32.2 km/h 81 % 0.00 in /  0 mm 0 W/m2
23:20 43.3 °F /  6.3 °C 37.9 °F /  3.3 °C 29.54 in /  1000.2 hPa SW 16.0 mph /  25.7 km/h 24.0 mph /  38.6 km/h 81 % 0.00 in /  0 mm 0 W/m2
23:25 43.3 °F /  6.3 °C 37.9 °F /  3.3 °C 29.54 in /  1000.2 hPa SW 12.0 mph /  19.3 km/h 20.0 mph /  32.2 km/h 81 % 0.00 in /  0 mm 0 W/m2
23:30 43.3 °F /  6.3 °C 37.9 °F /  3.3 °C 29.54 in /  1000.2 hPa WSW 15.0 mph /  24.1 km/h 20.0 mph /  32.2 km/h 81 % 0.00 in /  0 mm 0 W/m2
23:35 43.3 °F /  6.3 °C 38.2 °F /  3.4 °C 29.55 in /  1000.6 hPa WSW 14.0 mph /  22.5 km/h 22.0 mph /  35.4 km/h 82 % 0.00 in /  0 mm 0 W/m2
23:40 43.2 °F /  6.2 °C 38.0 °F /  3.3 °C 29.55 in /  1000.6 hPa SW 13.0 mph /  20.9 km/h 20.0 mph /  32.2 km/h 82 % 0.00 in /  0 mm 0 W/m2
23:45 43.2 °F /  6.2 °C 38.0 °F /  3.3 °C 29.55 in /  1000.6 hPa WSW 15.0 mph /  24.1 km/h 26.0 mph /  41.8 km/h 82 % 0.00 in /  0 mm 0 W/m2
23:50 43.2 °F /  6.2 °C 38.0 °F /  3.3 °C 29.55 in /  1000.6 hPa SW 13.0 mph /  20.9 km/h 20.0 mph /  32.2 km/h 82 % 0.00 in /  0 mm 0 W/m2
23:55 43.3 °F /  6.3 °C 38.2 °F /  3.4 °C 29.55 in /  1000.6 hPa SW 12.0 mph /  19.3 km/h 19.0 mph /  30.6 km/h 82 % 0.00 in /  0 mm 0 W/m2
Delerius-Weather
Compliments of Weather Underground - 2 mb

Data updates at regular intervals.